Mosca, Colorado
Current Conditions -  °F | °C
As of 4:52 AM on Saturday 25 Oct 2014 (Local Time) from KALS Reporting Station
Clear Clear  
Wind Chill: 19°   Ceiling: Unl
Heat Index: 25°   Visibility: 10mi
Dew Point: 20°   Wind: 5mph
Humidity: 81%   Direction: 120°ESE
Pressure: 30.41"   Gusts: NA
Location:  37.65°N, 105.87°W
Report Text: KALS 251052Z AUTO 12004KT 10SM CLR M04/M07 A3041 RMK AO2 SLP251 T10391067
Loading
Personal Weather Stations






























Interactive Weather Map
Tropical Storm Tracking
New forecast layout! Learn more

10-Day Weather Forecast

Advertisements
Track Severe Weather on mobile